Wellington, Missouri
Current Conditions -  °F | °C
As of 2:35 AM on Thursday 27 Nov 2014 (Local Time) from KGPH Reporting Station
Overcast Overcast  
Wind Chill: 20°   Ceiling: 1600
Heat Index: 28°   Visibility: 10mi
Dew Point: 23°   Wind: 9mph
Humidity: 80%   Direction: 310°NW
Pressure: 30.47"   Gusts: NA
Location:  39.13°N, 93.98°W
Report Text: KGPH 270835Z AUTO 31008KT 10SM OVC016 M02/M05 A3047 RMK AO2
Loading
Personal Weather Stations






























Interactive Weather Map New forecast layout! Learn more

10-Day Weather Forecast

Advertisements
Track Severe Weather on mobile